createdAt,value
2022-11-26T00:01:23.403Z,101026.16
2022-11-26T00:03:49.802Z,101024.22
2022-11-26T00:06:16.105Z,101031.09
2022-11-26T00:08:42.466Z,101026.22
2022-11-26T00:11:08.774Z,101031.56
2022-11-26T00:13:35.081Z,101032.75
2022-11-26T00:16:01.394Z,101031.91
2022-11-26T00:18:27.770Z,101039.97
2022-11-26T00:20:54.196Z,101036.81
2022-11-26T00:23:20.795Z,101034.28
2022-11-26T00:25:47.177Z,101037.56
2022-11-26T00:28:13.481Z,101032.75
2022-11-26T00:30:39.959Z,101038.44
2022-11-26T00:33:06.262Z,101041.38
2022-11-26T00:35:32.570Z,101056.00
2022-11-26T00:37:58.981Z,101054.94
2022-11-26T00:40:25.306Z,101060.22
2022-11-26T00:42:51.625Z,101046.94
2022-11-26T00:45:17.942Z,101060.31
2022-11-26T00:47:44.240Z,101064.97
2022-11-26T00:50:10.572Z,101066.38
2022-11-26T00:52:36.882Z,101073.28
2022-11-26T00:55:03.222Z,101071.59
2022-11-26T00:57:29.542Z,101071.53
2022-11-26T00:59:56.090Z,101079.19
2022-11-26T01:02:22.467Z,101078.28
2022-11-26T01:04:48.798Z,101090.38
2022-11-26T01:07:15.171Z,101088.56
2022-11-26T01:09:41.502Z,101091.50
2022-11-26T01:12:08.739Z,101093.00
2022-11-26T01:14:35.207Z,101089.09
2022-11-26T01:17:01.654Z,101099.44
2022-11-26T01:19:27.995Z,101091.19
2022-11-26T01:21:54.328Z,101101.47
2022-11-26T01:24:20.642Z,101100.81
2022-11-26T01:26:47.037Z,101102.44
2022-11-26T01:29:13.346Z,101105.16
2022-11-26T01:31:39.764Z,101105.47
2022-11-26T01:34:06.600Z,101105.22
2022-11-26T01:36:33.127Z,101104.63
2022-11-26T01:38:59.442Z,101097.63
2022-11-26T01:41:25.757Z,101099.59
2022-11-26T01:43:52.096Z,101105.44
2022-11-26T01:46:22.204Z,101109.72
2022-11-26T01:48:48.522Z,101111.44
2022-11-26T01:53:46.310Z,101113.88
2022-11-26T01:56:12.655Z,101112.72
2022-11-26T01:58:40.203Z,101115.75
2022-11-26T02:01:06.817Z,101123.84
2022-11-26T02:03:33.173Z,101128.56
2022-11-26T02:05:59.659Z,101126.03
2022-11-26T02:08:25.983Z,101130.66
2022-11-26T02:10:52.417Z,101134.94
2022-11-26T02:13:18.753Z,101135.81
2022-11-26T02:15:45.084Z,101139.94
2022-11-26T02:18:11.434Z,101140.47
2022-11-26T02:20:37.750Z,101134.78
2022-11-26T02:23:04.553Z,101139.59
2022-11-26T02:25:30.899Z,101143.62
2022-11-26T02:27:57.232Z,101139.91
2022-11-26T02:30:23.709Z,101143.56
2022-11-26T02:32:50.031Z,101142.06
2022-11-26T02:35:16.370Z,101154.16
2022-11-26T02:37:42.758Z,101157.06
2022-11-26T02:40:09.070Z,101157.22
2022-11-26T02:42:35.390Z,101163.75
2022-11-26T02:45:01.722Z,101167.94
2022-11-26T02:47:28.058Z,101167.03
2022-11-26T02:49:54.377Z,101167.28
2022-11-26T02:52:20.683Z,101172.44
2022-11-26T02:54:47.048Z,101178.47
2022-11-26T02:57:13.379Z,101171.12
2022-11-26T02:59:39.685Z,101175.13
2022-11-26T03:02:05.988Z,101177.62
2022-11-26T03:04:32.294Z,101186.84
2022-11-26T03:06:58.611Z,101182.94
2022-11-26T03:09:24.946Z,101192.34
2022-11-26T03:11:51.366Z,101194.34
2022-11-26T03:14:17.770Z,101197.19
2022-11-26T03:16:44.177Z,101198.22
2022-11-26T03:19:10.542Z,101197.78
2022-11-26T03:21:36.863Z,101203.00
2022-11-26T03:24:03.199Z,101203.50
2022-11-26T03:26:29.561Z,101202.06
2022-11-26T03:28:55.890Z,101202.75
2022-11-26T03:31:22.319Z,101205.53
2022-11-26T03:33:48.666Z,101209.63
2022-11-26T03:36:14.983Z,101221.28
2022-11-26T03:38:41.286Z,101219.41
2022-11-26T03:41:07.675Z,101229.19
2022-11-26T03:43:33.984Z,101230.66
2022-11-26T03:46:00.368Z,101227.47
2022-11-26T03:48:26.722Z,101233.34
2022-11-26T03:50:53.049Z,101238.38
2022-11-26T03:53:19.387Z,101239.97
2022-11-26T03:55:45.723Z,101242.25
2022-11-26T03:58:12.027Z,101237.50
2022-11-26T04:00:38.360Z,101241.69
2022-11-26T04:03:04.782Z,101241.09
2022-11-26T04:05:31.207Z,101252.28
2022-11-26T04:07:57.556Z,101241.09
2022-11-26T04:10:23.915Z,101250.97
2022-11-26T04:12:50.216Z,101250.06
2022-11-26T04:15:16.541Z,101248.84
2022-11-26T04:17:42.911Z,101255.56
2022-11-26T04:20:09.237Z,101254.22
2022-11-26T04:22:35.550Z,101256.50
2022-11-26T04:25:01.876Z,101255.47
2022-11-26T04:27:28.258Z,101265.22
2022-11-26T04:29:54.604Z,101262.56
2022-11-26T04:32:20.918Z,101260.47
2022-11-26T04:34:47.246Z,101267.22
2022-11-26T04:37:13.551Z,101268.63
2022-11-26T04:39:39.868Z,101285.06
2022-11-26T04:42:06.173Z,101285.28
2022-11-26T04:44:32.495Z,101281.41
2022-11-26T04:46:58.802Z,101290.38
2022-11-26T04:49:25.286Z,101291.78
2022-11-26T04:51:51.595Z,101290.69
2022-11-26T04:54:17.964Z,101301.81
2022-11-26T04:56:44.352Z,101302.72
2022-11-26T04:59:10.995Z,101308.25
2022-11-26T05:01:37.446Z,101303.38
2022-11-26T05:04:03.836Z,101308.22
2022-11-26T05:06:30.140Z,101310.94
2022-11-26T05:08:56.467Z,101317.25
2022-11-26T05:11:22.806Z,101321.72
2022-11-26T05:13:49.128Z,101324.97
2022-11-26T05:16:19.190Z,101323.69
2022-11-26T05:18:45.557Z,101335.31
2022-11-26T05:21:11.894Z,101331.19
2022-11-26T05:23:38.214Z,101328.41
2022-11-26T05:26:04.557Z,101328.94
2022-11-26T05:28:30.889Z,101340.81
2022-11-26T05:30:57.246Z,101352.50
2022-11-26T05:33:23.694Z,101344.72
2022-11-26T05:35:50.015Z,101347.97
2022-11-26T05:38:16.394Z,101351.97
2022-11-26T05:40:42.705Z,101352.72
2022-11-26T05:43:09.132Z,101361.41
2022-11-26T05:45:35.462Z,101361.72
2022-11-26T05:48:01.789Z,101350.25
2022-11-26T05:50:28.118Z,101354.22
2022-11-26T05:52:54.449Z,101360.28
2022-11-26T05:55:20.765Z,101365.94
2022-11-26T05:57:47.103Z,101372.87
2022-11-26T06:00:17.135Z,101372.47
2022-11-26T06:02:43.612Z,101379.50
2022-11-26T06:05:10.120Z,101374.22
2022-11-26T06:07:40.611Z,101384.81
2022-11-26T06:10:09.807Z,101385.66
2022-11-26T06:12:36.182Z,101390.66
2022-11-26T06:15:02.491Z,101387.53
2022-11-26T06:17:28.812Z,101396.97
2022-11-26T06:19:55.118Z,101407.72
2022-11-26T06:22:21.437Z,101403.94
2022-11-26T06:24:47.809Z,101403.41
2022-11-26T06:27:14.121Z,101404.44
2022-11-26T06:29:40.474Z,101409.13
2022-11-26T06:32:06.823Z,101404.75
2022-11-26T06:34:33.191Z,101416.94
2022-11-26T06:36:59.501Z,101416.41
2022-11-26T06:39:25.827Z,101422.47
2022-11-26T06:41:52.130Z,101421.38
2022-11-26T06:44:18.487Z,101428.59
2022-11-26T06:46:44.823Z,101429.38
2022-11-26T06:49:11.144Z,101427.94
2022-11-26T06:51:37.458Z,101438.72
2022-11-26T06:54:03.779Z,101432.09
2022-11-26T06:56:30.094Z,101440.75
2022-11-26T06:58:56.481Z,101442.12
2022-11-26T07:01:23.977Z,101452.66
2022-11-26T07:03:50.379Z,101449.63
2022-11-26T07:06:17.241Z,101456.78
2022-11-26T07:08:43.564Z,101450.09
2022-11-26T07:11:10.821Z,101459.81
2022-11-26T07:13:37.178Z,101469.00
2022-11-26T07:16:03.695Z,101464.03
2022-11-26T07:18:30.017Z,101477.03
2022-11-26T07:20:56.472Z,101477.66
2022-11-26T07:23:22.820Z,101482.84
2022-11-26T07:25:49.145Z,101477.00
2022-11-26T07:28:15.449Z,101474.81
2022-11-26T07:30:41.785Z,101487.84
2022-11-26T07:33:08.158Z,101486.41
2022-11-26T07:35:34.505Z,101490.63
2022-11-26T07:38:00.890Z,101494.22
2022-11-26T07:40:27.219Z,101498.09
2022-11-26T07:42:53.645Z,101495.31
2022-11-26T07:45:19.972Z,101491.13
2022-11-26T07:47:46.283Z,101500.88
2022-11-26T07:50:12.612Z,101493.56
2022-11-26T07:52:38.939Z,101509.66
2022-11-26T07:55:11.001Z,101508.53
2022-11-26T07:57:38.762Z,101505.22
2022-11-26T08:00:05.086Z,101513.25
2022-11-26T08:02:31.448Z,101507.97
2022-11-26T08:04:57.826Z,101514.34
2022-11-26T08:07:29.020Z,101510.38
2022-11-26T08:09:55.866Z,101514.28
2022-11-26T08:12:22.218Z,101519.59
2022-11-26T08:14:48.661Z,101525.34
2022-11-26T08:17:15.014Z,101530.66
2022-11-26T08:19:41.395Z,101532.19
2022-11-26T08:22:07.737Z,101533.50
2022-11-26T08:24:34.089Z,101529.16
2022-11-26T08:27:00.419Z,101543.62
2022-11-26T08:29:26.734Z,101542.03
2022-11-26T08:31:53.117Z,101537.94
2022-11-26T08:34:19.467Z,101535.75
2022-11-26T08:36:45.865Z,101546.34
2022-11-26T08:39:12.182Z,101545.87
2022-11-26T08:41:38.515Z,101540.62
2022-11-26T08:44:06.658Z,101544.47
2022-11-26T08:46:34.023Z,101552.28
2022-11-26T08:49:00.488Z,101545.25
2022-11-26T08:51:26.815Z,101550.50
2022-11-26T08:53:55.469Z,101545.37
2022-11-26T08:56:21.954Z,101554.09
2022-11-26T08:58:49.255Z,101553.47
2022-11-26T09:01:16.114Z,101552.59
2022-11-26T09:03:42.502Z,101558.16
2022-11-26T09:06:08.861Z,101552.91
2022-11-26T09:08:44.977Z,101557.91
2022-11-26T09:11:11.511Z,101564.12
2022-11-26T09:13:37.847Z,101562.41
2022-11-26T09:16:04.209Z,101569.41
2022-11-26T09:18:30.593Z,101580.41
2022-11-26T09:20:57.365Z,101583.69
2022-11-26T09:23:23.755Z,101579.25
2022-11-26T09:25:50.086Z,101573.91
2022-11-26T09:28:16.419Z,101579.75
2022-11-26T09:30:42.737Z,101581.28
2022-11-26T09:33:11.071Z,101589.75
2022-11-26T09:35:37.397Z,101578.69
2022-11-26T09:38:03.741Z,101576.37
2022-11-26T09:40:30.058Z,101576.31
2022-11-26T09:42:56.406Z,101584.56
2022-11-26T09:45:22.843Z,101587.03
2022-11-26T09:47:49.488Z,101585.25
2022-11-26T09:50:16.012Z,101591.16
2022-11-26T09:52:42.653Z,101591.91
2022-11-26T09:55:08.961Z,101592.87
2022-11-26T09:57:35.283Z,101591.16
2022-11-26T10:00:01.645Z,101597.53
2022-11-26T10:02:27.973Z,101591.88
2022-11-26T10:04:54.338Z,101603.16
2022-11-26T10:07:20.681Z,101599.00
2022-11-26T10:09:47.047Z,101602.47
2022-11-26T10:12:24.648Z,101598.78
2022-11-26T10:14:52.110Z,101604.22
2022-11-26T10:17:18.462Z,101600.19
2022-11-26T10:19:44.834Z,101608.56
2022-11-26T10:22:11.306Z,101602.09
2022-11-26T10:24:38.614Z,101600.66
2022-11-26T10:27:05.178Z,101594.19
2022-11-26T10:29:31.499Z,101606.03
2022-11-26T10:31:58.084Z,101609.66
2022-11-26T10:34:24.430Z,101606.03
2022-11-26T10:36:50.770Z,101621.34
2022-11-26T10:39:17.112Z,101614.88
2022-11-26T10:41:43.454Z,101613.09
2022-11-26T10:44:09.787Z,101609.25
2022-11-26T10:46:36.240Z,101612.25
2022-11-26T10:49:02.621Z,101623.66
2022-11-26T10:51:33.216Z,101622.66
2022-11-26T10:53:59.540Z,101623.50
2022-11-26T10:56:25.882Z,101631.84
2022-11-26T10:58:52.190Z,101624.44
2022-11-26T11:01:18.662Z,101637.56
2022-11-26T11:04:07.167Z,101635.06
2022-11-26T11:06:31.314Z,101636.78
2022-11-26T11:08:57.640Z,101635.91
2022-11-26T11:11:24.028Z,101637.56
2022-11-26T11:13:50.380Z,101640.69
2022-11-26T11:16:16.814Z,101639.31
2022-11-26T11:18:43.153Z,101644.88
2022-11-26T11:21:09.479Z,101643.72
2022-11-26T11:24:06.637Z,101644.88
2022-11-26T11:26:22.218Z,101647.03
2022-11-26T11:28:48.584Z,101643.94
2022-11-26T11:31:15.057Z,101649.28
2022-11-26T11:33:41.403Z,101649.81
2022-11-26T11:36:07.827Z,101649.59
2022-11-26T11:38:34.214Z,101656.56
2022-11-26T11:41:00.539Z,101664.03
2022-11-26T11:43:27.013Z,101664.75
2022-11-26T11:45:53.659Z,101663.50
2022-11-26T11:48:20.054Z,101660.25
2022-11-26T11:50:48.776Z,101665.66
2022-11-26T11:53:15.107Z,101667.97
2022-11-26T11:55:41.429Z,101667.91
2022-11-26T11:58:09.325Z,101664.88
2022-11-26T12:00:35.651Z,101663.41
2022-11-26T12:03:02.063Z,101662.72
2022-11-26T12:05:28.411Z,101660.59
2022-11-26T12:07:54.824Z,101664.69
2022-11-26T12:10:21.207Z,101660.53
2022-11-26T12:12:48.186Z,101666.50
2022-11-26T12:15:14.532Z,101660.66
2022-11-26T12:17:40.902Z,101657.78
2022-11-26T12:20:07.430Z,101662.69
2022-11-26T12:22:33.738Z,101662.25
2022-11-26T12:25:00.185Z,101665.34
2022-11-26T12:27:26.499Z,101656.69
2022-11-26T12:29:52.854Z,101658.34
2022-11-26T12:32:19.266Z,101660.78
2022-11-26T12:34:45.956Z,101658.97
2022-11-26T12:37:13.110Z,101658.50
2022-11-26T12:39:39.435Z,101651.22
2022-11-26T12:42:06.151Z,101660.72
2022-11-26T12:44:32.569Z,101658.50
2022-11-26T12:46:58.920Z,101667.66
2022-11-26T12:49:25.559Z,101663.66
2022-11-26T12:51:51.898Z,101668.00
2022-11-26T12:54:18.510Z,101664.31
2022-11-26T12:56:44.842Z,101679.22
2022-11-26T12:59:11.204Z,101676.47
2022-11-26T13:01:41.105Z,101668.97
2022-11-26T13:04:37.307Z,101667.72
2022-11-26T13:06:53.753Z,101677.13
2022-11-26T13:09:20.109Z,101674.16
2022-11-26T13:11:46.516Z,101680.22
2022-11-26T13:14:12.882Z,101677.66
2022-11-26T13:16:40.068Z,101669.72
2022-11-26T13:19:07.052Z,101675.94
2022-11-26T13:21:33.458Z,101672.19
2022-11-26T13:23:59.757Z,101671.66
2022-11-26T13:26:26.176Z,101679.31
2022-11-26T13:28:52.510Z,101672.19
2022-11-26T13:31:18.843Z,101676.53
2022-11-26T13:33:45.187Z,101682.31
2022-11-26T13:36:11.573Z,101683.53
2022-11-26T13:38:37.983Z,101685.13
2022-11-26T13:41:04.305Z,101689.78
2022-11-26T13:43:30.652Z,101679.22
2022-11-26T13:45:57.088Z,101684.78
2022-11-26T13:48:23.593Z,101683.41
2022-11-26T13:50:49.951Z,101686.31
2022-11-26T13:53:17.159Z,101677.87
2022-11-26T13:55:43.649Z,101677.19
2022-11-26T13:58:10.118Z,101680.16
2022-11-26T14:00:37.275Z,101678.97
2022-11-26T14:03:03.649Z,101689.09
2022-11-26T14:05:29.991Z,101691.81
2022-11-26T14:07:56.442Z,101685.13
2022-11-26T14:10:22.823Z,101684.16
2022-11-26T14:12:49.137Z,101683.50
2022-11-26T14:15:15.507Z,101687.91
2022-11-26T14:17:41.826Z,101687.94
2022-11-26T14:20:08.246Z,101696.91
2022-11-26T14:22:34.599Z,101697.81
2022-11-26T14:25:00.997Z,101698.63
2022-11-26T14:27:27.346Z,101705.53
2022-11-26T14:29:53.694Z,101700.81
2022-11-26T14:32:20.007Z,101699.62
2022-11-26T14:34:46.379Z,101697.94
2022-11-26T14:37:12.688Z,101702.00
2022-11-26T14:39:39.025Z,101706.03
2022-11-26T14:42:06.585Z,101704.19
2022-11-26T14:44:33.238Z,101705.84
2022-11-26T14:46:59.592Z,101698.37
2022-11-26T14:49:25.906Z,101693.28
2022-11-26T14:51:53.720Z,101698.22
2022-11-26T14:54:20.378Z,101698.97
2022-11-26T14:56:46.826Z,101702.06
2022-11-26T14:59:13.322Z,101705.28
2022-11-26T15:01:39.656Z,101702.84
2022-11-26T15:04:06.031Z,101703.53
2022-11-26T15:06:37.817Z,101699.91
2022-11-26T15:09:04.146Z,101705.47
2022-11-26T15:11:30.466Z,101714.94
2022-11-26T15:13:56.851Z,101708.09
2022-11-26T15:16:23.230Z,101714.00
2022-11-26T15:18:49.634Z,101707.66
2022-11-26T15:21:15.959Z,101709.38
2022-11-26T15:23:42.288Z,101716.50
2022-11-26T15:26:08.596Z,101718.72
2022-11-26T15:28:35.089Z,101717.91
2022-11-26T15:31:01.515Z,101721.84
2022-11-26T15:33:27.931Z,101720.19
2022-11-26T15:35:57.409Z,101722.72
2022-11-26T15:38:23.861Z,101728.31
2022-11-26T15:40:50.169Z,101738.34
2022-11-26T15:43:16.490Z,101729.25
2022-11-26T15:45:42.814Z,101737.63
2022-11-26T15:48:09.168Z,101733.75
2022-11-26T15:50:35.479Z,101740.97
2022-11-26T15:53:01.839Z,101743.44
2022-11-26T15:55:28.500Z,101733.44
2022-11-26T15:57:54.942Z,101734.25
2022-11-26T16:00:21.392Z,101738.13
2022-11-26T16:02:47.842Z,101730.06
2022-11-26T16:05:14.315Z,101715.37
2022-11-26T16:07:40.733Z,101730.84
2022-11-26T16:10:07.122Z,101730.53
2022-11-26T16:12:33.462Z,101725.22
2022-11-26T16:14:59.885Z,101728.28
2022-11-26T16:17:26.204Z,101728.78
2022-11-26T16:19:52.594Z,101724.09
2022-11-26T16:22:21.678Z,101729.66
2022-11-26T16:24:50.419Z,101732.22
2022-11-26T16:27:17.788Z,101734.34
2022-11-26T16:29:44.093Z,101737.09
2022-11-26T16:32:10.406Z,101737.72
2022-11-26T16:34:36.837Z,101733.25
2022-11-26T16:37:03.281Z,101732.97
2022-11-26T16:39:30.542Z,101734.59
2022-11-26T16:41:57.325Z,101738.84
2022-11-26T16:44:23.679Z,101731.34
2022-11-26T16:46:50.019Z,101733.00
2022-11-26T16:49:16.339Z,101739.91
2022-11-26T16:51:42.714Z,101743.47
2022-11-26T16:54:09.097Z,101744.81
2022-11-26T16:56:39.046Z,101736.75
2022-11-26T16:59:05.629Z,101752.53
2022-11-26T17:01:32.084Z,101753.59
2022-11-26T17:03:58.480Z,101751.34
2022-11-26T17:06:25.003Z,101756.47
2022-11-26T17:08:51.465Z,101760.84
2022-11-26T17:11:17.899Z,101758.94
2022-11-26T17:13:44.332Z,101767.53
2022-11-26T17:16:10.856Z,101773.91
2022-11-26T17:18:37.194Z,101769.47
2022-11-26T17:21:03.518Z,101773.09
2022-11-26T17:23:29.870Z,101766.09
2022-11-26T17:25:57.047Z,101779.28
2022-11-26T17:28:23.404Z,101777.13
2022-11-26T17:30:50.050Z,101778.75
2022-11-26T17:33:16.455Z,101780.09
2022-11-26T17:35:42.864Z,101779.81
2022-11-26T17:38:09.222Z,101776.25
2022-11-26T17:40:35.634Z,101774.25
2022-11-26T17:43:01.965Z,101776.72
2022-11-26T17:45:28.305Z,101775.34
2022-11-26T17:47:54.660Z,101774.81
2022-11-26T17:50:21.024Z,101778.38
2022-11-26T17:52:48.662Z,101781.19
2022-11-26T17:55:15.049Z,101785.34
2022-11-26T17:57:41.366Z,101778.12
2022-11-26T18:00:07.818Z,101780.38
2022-11-26T18:02:34.213Z,101783.09
2022-11-26T18:05:00.705Z,101779.81
2022-11-26T18:07:27.270Z,101785.84
2022-11-26T18:09:53.738Z,101783.94
2022-11-26T18:12:24.689Z,101786.69
2022-11-26T18:14:51.610Z,101793.09
2022-11-26T18:17:18.071Z,101792.84
2022-11-26T18:19:44.385Z,101792.31
2022-11-26T18:22:10.704Z,101793.13
2022-11-26T18:24:37.050Z,101804.28
2022-11-26T18:27:03.432Z,101799.28
2022-11-26T18:29:30.318Z,101799.59
2022-11-26T18:31:56.751Z,101803.22
2022-11-26T18:34:23.128Z,101795.44
2022-11-26T18:36:53.492Z,101792.97
2022-11-26T18:39:20.333Z,101801.59
2022-11-26T18:41:46.693Z,101810.78
2022-11-26T18:44:13.038Z,101804.09
2022-11-26T18:46:39.512Z,101816.59
2022-11-26T18:49:05.958Z,101816.84
2022-11-26T18:51:32.390Z,101817.72
2022-11-26T18:53:58.768Z,101819.97
2022-11-26T18:56:25.193Z,101812.47
2022-11-26T18:58:51.526Z,101812.81
2022-11-26T19:01:17.882Z,101818.59
2022-11-26T19:03:44.496Z,101804.69
2022-11-26T19:06:10.827Z,101810.22
2022-11-26T19:08:39.025Z,101805.81
2022-11-26T19:11:05.375Z,101805.28
2022-11-26T19:13:31.729Z,101807.25
2022-11-26T19:15:58.727Z,101803.88
2022-11-26T19:18:25.039Z,101803.37
2022-11-26T19:20:51.538Z,101808.91
2022-11-26T19:23:18.411Z,101804.22
2022-11-26T19:25:45.773Z,101795.59
2022-11-26T19:28:12.435Z,101803.34
2022-11-26T19:30:38.822Z,101806.41
2022-11-26T19:33:05.626Z,101801.12
2022-11-26T19:35:31.967Z,101805.28
2022-11-26T19:37:58.286Z,101813.34
2022-11-26T19:40:24.634Z,101817.78
2022-11-26T19:42:51.021Z,101814.16
2022-11-26T19:45:17.395Z,101813.37
2022-11-26T19:47:43.749Z,101815.31
2022-11-26T19:50:10.097Z,101806.69
2022-11-26T19:52:36.401Z,101813.94
2022-11-26T19:55:02.734Z,101810.06
2022-11-26T19:57:29.048Z,101806.47
2022-11-26T19:59:55.416Z,101797.28
2022-11-26T20:02:21.827Z,101801.47
2022-11-26T20:04:48.160Z,101809.25
2022-11-26T20:07:14.589Z,101819.78
2022-11-26T20:09:41.284Z,101814.50
2022-11-26T20:12:07.887Z,101807.56
2022-11-26T20:14:34.213Z,101812.53
2022-11-26T20:17:01.310Z,101810.34
2022-11-26T20:19:27.894Z,101810.31
2022-11-26T20:21:54.235Z,101811.72
2022-11-26T20:24:20.631Z,101806.16
2022-11-26T20:26:48.690Z,101815.63
2022-11-26T20:29:15.109Z,101810.59
2022-11-26T20:31:41.455Z,101811.72
2022-11-26T20:34:07.785Z,101805.34
2022-11-26T20:36:34.156Z,101808.38
2022-11-26T20:39:00.489Z,101807.00
2022-11-26T20:41:26.927Z,101807.25
2022-11-26T20:43:58.233Z,101804.22
2022-11-26T20:46:25.718Z,101809.53
2022-11-26T20:48:52.206Z,101798.97
2022-11-26T20:51:18.566Z,101794.22
2022-11-26T20:53:50.207Z,101790.91
2022-11-26T20:56:16.547Z,101793.41
2022-11-26T20:58:43.226Z,101799.53
2022-11-26T21:01:09.663Z,101800.09
2022-11-26T21:03:36.010Z,101796.50
2022-11-26T21:06:02.373Z,101798.44
2022-11-26T21:08:28.690Z,101799.56
2022-11-26T21:10:55.125Z,101797.31
2022-11-26T21:13:22.728Z,101795.97
2022-11-26T21:15:49.069Z,101795.41
2022-11-26T21:18:15.463Z,101798.44
2022-11-26T21:20:41.818Z,101796.81
2022-11-26T21:23:08.116Z,101795.97
2022-11-26T21:28:06.169Z,101790.41
2022-11-26T21:30:32.549Z,101789.28
2022-11-26T21:32:59.953Z,101790.41
2022-11-26T21:35:27.671Z,101788.63
2022-11-26T21:37:53.994Z,101804.19
2022-11-26T21:40:20.604Z,101803.59
2022-11-26T21:42:46.936Z,101809.87
2022-11-26T21:45:13.341Z,101800.53
2022-11-26T21:47:39.660Z,101805.03
2022-11-26T21:50:06.012Z,101808.41
2022-11-26T21:52:32.327Z,101804.78
2022-11-26T21:55:03.389Z,101808.66
2022-11-26T21:57:30.285Z,101803.41
2022-11-26T21:59:56.606Z,101807.03
2022-11-26T22:02:22.992Z,101796.53
2022-11-26T22:04:49.335Z,101797.66
2022-11-26T22:07:15.861Z,101795.69
2022-11-26T22:09:42.295Z,101794.59
2022-11-26T22:12:08.759Z,101795.13
2022-11-26T22:14:35.146Z,101795.69
2022-11-26T22:17:01.494Z,101796.78
2022-11-26T22:19:27.811Z,101789.03
2022-11-26T22:21:54.192Z,101795.91
2022-11-26T22:24:20.575Z,101807.28
2022-11-26T22:26:46.915Z,101820.56
2022-11-26T22:29:13.269Z,101828.91
2022-11-26T22:34:10.982Z,101829.78
2022-11-26T22:36:37.388Z,101828.69
2022-11-26T22:39:03.747Z,101834.75
2022-11-26T22:41:30.110Z,101835.88
2022-11-26T22:43:56.484Z,101843.63
2022-11-26T22:46:22.955Z,101838.91
2022-11-26T22:48:49.379Z,101838.62
2022-11-26T22:51:15.685Z,101848.88
2022-11-26T22:53:42.005Z,101854.41
2022-11-26T22:56:08.307Z,101849.97
2022-11-26T22:58:34.639Z,101836.69
2022-11-26T23:01:00.986Z,101847.47
2022-11-26T23:03:27.397Z,101846.63
2022-11-26T23:05:53.822Z,101845.28
2022-11-26T23:08:20.132Z,101832.81
2022-11-26T23:10:46.736Z,101833.59
2022-11-26T23:13:13.097Z,101846.69
2022-11-26T23:15:44.335Z,101829.22
2022-11-26T23:18:11.102Z,101837.28
2022-11-26T23:20:37.418Z,101841.44
2022-11-26T23:23:03.803Z,101831.16
2022-11-26T23:25:30.137Z,101829.78
2022-11-26T23:27:56.454Z,101842.25
2022-11-26T23:30:22.797Z,101831.16
2022-11-26T23:32:49.136Z,101839.50
2022-11-26T23:35:15.493Z,101829.78
2022-11-26T23:37:41.910Z,101829.50
2022-11-26T23:40:08.253Z,101825.88
2022-11-26T23:42:34.561Z,101829.25
2022-11-26T23:45:02.790Z,101837.78
2022-11-26T23:47:29.102Z,101832.50
2022-11-26T23:50:00.648Z,101835.84
2022-11-26T23:52:27.309Z,101830.91
2022-11-26T23:54:53.661Z,101827.84
2022-11-26T23:57:20.565Z,101830.09
2022-11-26T23:59:46.902Z,101833.41
